createdAt,value
2023-03-29T00:00:14.124Z,100.00
2023-03-29T00:02:42.117Z,100.00
2023-03-29T00:05:13.189Z,100.00
2023-03-29T00:07:39.666Z,100.00
2023-03-29T00:10:07.528Z,100.00
2023-03-29T00:12:37.886Z,100.00
2023-03-29T00:15:09.246Z,100.00
2023-03-29T00:17:36.025Z,100.00
2023-03-29T00:20:03.055Z,100.00
2023-03-29T00:22:29.498Z,100.00
2023-03-29T00:25:01.145Z,100.00
2023-03-29T00:27:27.764Z,100.00
2023-03-29T00:29:54.679Z,100.00
2023-03-29T00:32:21.150Z,100.00
2023-03-29T00:34:50.641Z,100.00
2023-03-29T00:37:20.295Z,100.00
2023-03-29T00:39:46.795Z,100.00
2023-03-29T00:42:18.632Z,100.00
2023-03-29T00:45:18.990Z,100.00
2023-03-29T00:47:50.312Z,100.00
2023-03-29T00:50:30.163Z,100.00
2023-03-29T00:53:05.835Z,100.00
2023-03-29T00:55:37.293Z,100.00
2023-03-29T00:58:08.603Z,100.00
2023-03-29T01:00:38.276Z,100.00
2023-03-29T01:03:13.783Z,100.00
2023-03-29T01:05:55.102Z,100.00
2023-03-29T01:08:29.479Z,100.00
2023-03-29T01:11:08.497Z,100.00
2023-03-29T01:13:50.947Z,100.00
2023-03-29T01:16:19.935Z,100.00
2023-03-29T01:18:48.677Z,100.00
2023-03-29T01:21:44.897Z,100.00
2023-03-29T01:24:41.828Z,100.00
2023-03-29T01:27:33.869Z,100.00
2023-03-29T01:30:07.785Z,100.00
2023-03-29T01:32:46.210Z,100.00
2023-03-29T01:35:34.189Z,100.00
2023-03-29T01:38:16.396Z,100.00
2023-03-29T01:40:42.793Z,100.00
2023-03-29T01:43:34.806Z,100.00
2023-03-29T01:46:04.538Z,100.00
2023-03-29T01:48:46.778Z,100.00
2023-03-29T01:51:18.740Z,100.00
2023-03-29T01:53:59.162Z,100.00
2023-03-29T01:56:29.198Z,100.00
2023-03-29T01:59:04.481Z,100.00
2023-03-29T02:01:40.740Z,100.00
2023-03-29T02:04:13.096Z,100.00
2023-03-29T02:06:41.481Z,100.00
2023-03-29T02:09:08.344Z,100.00
2023-03-29T02:11:36.438Z,100.00
2023-03-29T02:14:05.518Z,100.00
2023-03-29T02:16:36.797Z,100.00
2023-03-29T02:19:03.862Z,100.00
2023-03-29T02:22:07.337Z,100.00
2023-03-29T02:24:36.584Z,100.00
2023-03-29T02:27:03.827Z,100.00
2023-03-29T02:29:30.550Z,100.00
2023-03-29T02:32:05.817Z,100.00
2023-03-29T02:34:49.301Z,100.00
2023-03-29T02:37:20.032Z,100.00
2023-03-29T02:39:49.760Z,100.00
2023-03-29T02:42:20.290Z,100.00
2023-03-29T02:44:49.873Z,100.00
2023-03-29T02:47:33.407Z,100.00
2023-03-29T02:50:00.445Z,100.00
2023-03-29T02:52:34.956Z,100.00
2023-03-29T02:55:04.479Z,100.00
2023-03-29T02:57:32.297Z,100.00
2023-03-29T03:00:01.419Z,100.00
2023-03-29T03:02:28.006Z,100.00
2023-03-29T03:04:54.853Z,100.00
2023-03-29T03:07:21.462Z,100.00
2023-03-29T03:09:48.442Z,100.00
2023-03-29T03:12:15.071Z,100.00
2023-03-29T03:14:41.530Z,100.00
2023-03-29T03:17:08.122Z,100.00
2023-03-29T03:19:34.584Z,100.00
2023-03-29T03:22:05.945Z,100.00
2023-03-29T03:24:35.482Z,100.00
2023-03-29T03:27:04.828Z,100.00
2023-03-29T03:29:31.365Z,100.00
2023-03-29T03:31:58.374Z,100.00
2023-03-29T03:34:24.844Z,100.00
2023-03-29T03:36:51.480Z,100.00
2023-03-29T03:39:18.153Z,100.00
2023-03-29T03:41:44.634Z,100.00
2023-03-29T03:44:11.914Z,100.00
2023-03-29T03:46:38.528Z,100.00
2023-03-29T03:49:05.706Z,100.00
2023-03-29T03:51:32.785Z,100.00
2023-03-29T03:53:59.267Z,100.00
2023-03-29T03:56:25.781Z,100.00
2023-03-29T03:58:52.596Z,100.00
2023-03-29T04:01:19.661Z,100.00
2023-03-29T04:03:46.433Z,100.00
2023-03-29T04:06:12.855Z,100.00
2023-03-29T04:08:39.477Z,100.00
2023-03-29T04:11:07.302Z,100.00
2023-03-29T04:13:37.407Z,100.00
2023-03-29T04:16:03.975Z,100.00
2023-03-29T04:18:30.675Z,100.00
2023-03-29T04:20:57.408Z,100.00
2023-03-29T04:23:25.918Z,100.00
2023-03-29T04:25:56.660Z,100.00
2023-03-29T04:28:23.311Z,100.00
2023-03-29T04:30:52.225Z,100.00
2023-03-29T04:33:18.715Z,100.00
2023-03-29T04:35:45.163Z,100.00
2023-03-29T04:38:11.654Z,100.00
2023-03-29T04:40:38.361Z,100.00
2023-03-29T04:43:07.395Z,100.00
2023-03-29T04:45:36.868Z,100.00
2023-03-29T04:48:05.880Z,100.00
2023-03-29T04:50:36.522Z,100.00
2023-03-29T04:53:03.535Z,100.00
2023-03-29T04:55:32.353Z,100.00
2023-03-29T04:57:58.816Z,100.00
2023-03-29T05:00:27.527Z,100.00
2023-03-29T05:02:54.216Z,100.00
2023-03-29T05:05:21.075Z,100.00
2023-03-29T05:07:47.900Z,100.00
2023-03-29T05:10:14.869Z,100.00
2023-03-29T05:12:41.403Z,100.00
2023-03-29T05:15:09.512Z,100.00
2023-03-29T05:17:35.945Z,100.00
2023-03-29T05:20:09.564Z,100.00
2023-03-29T05:22:36.517Z,100.00
2023-03-29T05:25:03.026Z,100.00
2023-03-29T05:27:31.736Z,100.00
2023-03-29T05:29:58.206Z,100.00
2023-03-29T05:32:24.699Z,100.00
2023-03-29T05:34:51.557Z,100.00
2023-03-29T05:37:17.972Z,100.00
2023-03-29T05:39:45.179Z,100.00
2023-03-29T05:42:15.621Z,100.00
2023-03-29T05:44:44.539Z,100.00
2023-03-29T05:47:11.318Z,100.00
2023-03-29T05:49:40.275Z,100.00
2023-03-29T05:52:06.939Z,100.00
2023-03-29T05:54:33.438Z,100.00
2023-03-29T05:56:59.871Z,100.00
2023-03-29T05:59:29.625Z,100.00
2023-03-29T06:02:00.466Z,100.00
2023-03-29T06:04:27.140Z,100.00
2023-03-29T06:06:54.947Z,100.00
2023-03-29T06:09:21.500Z,100.00
2023-03-29T06:11:51.429Z,100.00
2023-03-29T06:14:18.956Z,100.00
2023-03-29T06:16:46.416Z,100.00
2023-03-29T06:19:12.848Z,100.00
2023-03-29T06:21:39.265Z,100.00
2023-03-29T06:24:06.811Z,100.00
2023-03-29T06:26:35.748Z,100.00
2023-03-29T06:29:04.318Z,100.00
2023-03-29T06:31:31.570Z,100.00
2023-03-29T06:33:58.344Z,100.00
2023-03-29T06:36:25.599Z,100.00
2023-03-29T06:38:52.414Z,100.00
2023-03-29T06:41:18.794Z,100.00
2023-03-29T06:43:47.621Z,100.00
2023-03-29T06:46:14.389Z,100.00
2023-03-29T06:48:43.503Z,100.00
2023-03-29T06:51:12.216Z,100.00
2023-03-29T06:53:38.737Z,100.00
2023-03-29T06:56:09.192Z,100.00
2023-03-29T06:58:35.976Z,100.00
2023-03-29T07:01:04.023Z,100.00
2023-03-29T07:03:34.854Z,100.00
2023-03-29T07:06:04.363Z,100.00
2023-03-29T07:08:35.147Z,100.00
2023-03-29T07:11:03.262Z,100.00
2023-03-29T07:13:30.431Z,100.00
2023-03-29T07:15:57.474Z,100.00
2023-03-29T07:18:23.906Z,100.00
2023-03-29T07:20:50.365Z,100.00
2023-03-29T07:23:17.962Z,100.00
2023-03-29T07:25:44.802Z,100.00
2023-03-29T07:28:11.415Z,100.00
2023-03-29T07:30:37.877Z,100.00
2023-03-29T07:33:04.440Z,100.00
2023-03-29T07:35:31.523Z,100.00
2023-03-29T07:38:00.800Z,100.00
2023-03-29T07:40:27.471Z,100.00
2023-03-29T07:42:58.695Z,100.00
2023-03-29T07:45:28.675Z,100.00
2023-03-29T07:47:59.652Z,100.00
2023-03-29T07:50:28.681Z,100.00
2023-03-29T07:52:56.926Z,100.00
2023-03-29T07:55:26.112Z,100.00
2023-03-29T07:57:53.496Z,100.00
2023-03-29T08:00:20.760Z,100.00
2023-03-29T08:02:52.493Z,100.00
2023-03-29T08:05:29.144Z,100.00
2023-03-29T08:08:05.220Z,100.00
2023-03-29T08:10:34.243Z,100.00
2023-03-29T08:13:00.969Z,100.00
2023-03-29T08:15:28.135Z,100.00
2023-03-29T08:17:59.554Z,100.00
2023-03-29T08:20:26.168Z,100.00
2023-03-29T08:22:56.284Z,100.00
2023-03-29T08:25:22.943Z,100.00
2023-03-29T08:27:54.107Z,100.00
2023-03-29T08:30:21.081Z,100.00
2023-03-29T08:32:50.480Z,100.00
2023-03-29T08:35:19.098Z,100.00
2023-03-29T08:37:48.418Z,100.00
2023-03-29T08:40:22.349Z,100.00
2023-03-29T08:43:19.814Z,100.00
2023-03-29T08:45:55.833Z,100.00
2023-03-29T08:48:42.288Z,100.00
2023-03-29T08:51:24.567Z,100.00
2023-03-29T08:54:11.494Z,100.00
2023-03-29T08:56:40.566Z,100.00
2023-03-29T08:59:18.936Z,100.00
2023-03-29T09:01:48.716Z,100.00
2023-03-29T09:04:22.828Z,100.00
2023-03-29T09:06:52.291Z,100.00
2023-03-29T09:09:25.825Z,100.00
2023-03-29T09:12:06.886Z,100.00
2023-03-29T09:14:39.363Z,100.00
2023-03-29T09:17:34.731Z,100.00
2023-03-29T09:20:07.039Z,100.00
2023-03-29T09:22:36.614Z,100.00
2023-03-29T09:25:16.674Z,100.00
2023-03-29T09:27:48.185Z,100.00
2023-03-29T09:30:25.942Z,100.00
2023-03-29T09:32:53.601Z,100.00
2023-03-29T09:35:32.051Z,100.00
2023-03-29T09:37:58.983Z,100.00
2023-03-29T09:40:42.706Z,100.00
2023-03-29T09:43:13.457Z,100.00
2023-03-29T09:45:41.226Z,100.00
2023-03-29T09:48:16.763Z,100.00
2023-03-29T09:50:48.751Z,100.00
2023-03-29T09:53:16.126Z,100.00
2023-03-29T09:55:44.811Z,100.00
2023-03-29T09:58:24.344Z,100.00
2023-03-29T10:00:51.197Z,100.00
2023-03-29T10:03:23.765Z,100.00
2023-03-29T10:05:57.343Z,100.00
2023-03-29T10:08:27.753Z,100.00
2023-03-29T10:10:57.783Z,100.00
2023-03-29T10:13:32.976Z,100.00
2023-03-29T10:16:17.163Z,100.00
2023-03-29T10:18:43.966Z,100.00
2023-03-29T10:21:20.773Z,100.00
2023-03-29T10:23:48.712Z,100.00
2023-03-29T10:26:24.329Z,100.00
2023-03-29T10:28:53.953Z,100.00
2023-03-29T10:31:24.550Z,100.00
2023-03-29T10:33:54.247Z,100.00
2023-03-29T10:36:22.446Z,96.35
2023-03-29T10:38:51.105Z,100.00
2023-03-29T10:41:18.851Z,95.99
2023-03-29T10:43:49.417Z,100.00
2023-03-29T10:46:27.970Z,93.83
2023-03-29T10:49:06.220Z,98.78
2023-03-29T10:51:34.501Z,91.68
2023-03-29T10:54:02.490Z,94.37
2023-03-29T10:56:51.957Z,91.47
2023-03-29T10:59:27.672Z,90.71
2023-03-29T11:02:15.856Z,83.85
2023-03-29T11:04:57.350Z,80.69
2023-03-29T11:07:35.924Z,76.60
2023-03-29T11:10:11.149Z,71.19
2023-03-29T11:12:45.198Z,79.03
2023-03-29T11:15:39.585Z,73.27
2023-03-29T11:18:22.204Z,89.71
2023-03-29T11:21:21.146Z,90.23
2023-03-29T11:24:12.788Z,84.02
2023-03-29T11:26:58.965Z,75.57
2023-03-29T11:29:33.578Z,78.19
2023-03-29T11:32:26.616Z,76.30
2023-03-29T11:35:22.315Z,79.26
2023-03-29T11:37:59.638Z,88.78
2023-03-29T11:40:45.984Z,81.02
2023-03-29T11:43:20.371Z,87.05
2023-03-29T11:45:53.522Z,84.91
2023-03-29T11:48:30.462Z,68.49
2023-03-29T11:51:14.124Z,69.56
2023-03-29T11:53:56.993Z,84.09
2023-03-29T11:56:31.659Z,83.54
2023-03-29T11:59:05.132Z,73.06
2023-03-29T12:01:37.464Z,83.83
2023-03-29T12:04:15.062Z,65.00
2023-03-29T12:07:10.818Z,82.45
2023-03-29T12:09:44.752Z,83.03
2023-03-29T12:12:23.372Z,80.66
2023-03-29T12:15:13.218Z,76.83
2023-03-29T12:17:49.345Z,79.38
2023-03-29T12:20:21.102Z,73.95
2023-03-29T12:22:49.081Z,70.33
2023-03-29T12:25:21.939Z,64.41
2023-03-29T12:28:18.150Z,69.77
2023-03-29T12:30:55.037Z,67.79
2023-03-29T12:33:43.017Z,61.42
2023-03-29T12:36:18.442Z,72.81
2023-03-29T12:38:45.413Z,71.12
2023-03-29T12:41:17.520Z,75.65
2023-03-29T12:43:46.675Z,66.14
2023-03-29T12:46:27.404Z,55.42
2023-03-29T12:49:05.983Z,60.01
2023-03-29T12:51:34.998Z,73.49
2023-03-29T12:54:32.236Z,60.61
2023-03-29T12:57:20.055Z,65.41
2023-03-29T12:59:48.826Z,59.48
2023-03-29T13:02:15.354Z,59.01
2023-03-29T13:04:56.711Z,66.89
2023-03-29T13:07:23.239Z,65.55
2023-03-29T13:09:54.847Z,69.73
2023-03-29T13:12:34.586Z,74.86
2023-03-29T13:15:05.463Z,72.98
2023-03-29T13:18:03.696Z,77.09
2023-03-29T13:20:37.329Z,73.54
2023-03-29T13:23:29.463Z,74.53
2023-03-29T13:26:02.545Z,82.53
2023-03-29T13:28:44.481Z,72.16
2023-03-29T13:31:30.014Z,78.84
2023-03-29T13:34:26.718Z,77.34
2023-03-29T13:37:32.111Z,77.26
2023-03-29T13:39:58.592Z,73.68
2023-03-29T13:42:39.470Z,74.00
2023-03-29T13:45:33.684Z,80.33
2023-03-29T13:48:29.510Z,76.40
2023-03-29T13:51:18.347Z,86.82
2023-03-29T13:53:54.124Z,87.87
2023-03-29T13:56:29.987Z,86.48
2023-03-29T13:59:25.724Z,89.72
2023-03-29T14:01:57.917Z,91.67
2023-03-29T14:04:27.833Z,92.93
2023-03-29T14:06:56.771Z,95.46
2023-03-29T14:09:32.866Z,91.58
2023-03-29T14:12:00.777Z,93.83
2023-03-29T14:14:30.757Z,87.22
2023-03-29T14:16:57.390Z,96.32
2023-03-29T14:19:35.519Z,93.60
2023-03-29T14:22:07.058Z,99.96
2023-03-29T14:24:49.792Z,98.42
2023-03-29T14:27:17.642Z,98.63
2023-03-29T14:29:53.153Z,96.72
2023-03-29T14:32:29.046Z,99.41
2023-03-29T14:34:58.660Z,100.00
2023-03-29T14:37:32.347Z,100.00
2023-03-29T14:40:01.437Z,100.00
2023-03-29T14:42:29.151Z,100.00
2023-03-29T14:45:04.219Z,100.00
2023-03-29T14:47:32.876Z,99.16
2023-03-29T14:50:03.921Z,100.00
2023-03-29T14:52:31.884Z,100.00
2023-03-29T14:55:01.806Z,100.00
2023-03-29T14:57:34.421Z,100.00
2023-03-29T15:00:22.095Z,100.00
2023-03-29T15:02:53.464Z,100.00
2023-03-29T15:05:36.498Z,100.00
2023-03-29T15:08:07.392Z,100.00
2023-03-29T15:10:36.684Z,100.00
2023-03-29T15:13:07.866Z,100.00
2023-03-29T15:15:38.250Z,100.00
2023-03-29T15:18:07.218Z,100.00
2023-03-29T15:20:37.741Z,100.00
2023-03-29T15:23:06.552Z,100.00
2023-03-29T15:25:58.056Z,100.00
2023-03-29T15:28:32.437Z,100.00
2023-03-29T15:31:14.115Z,100.00
2023-03-29T15:33:42.276Z,100.00
2023-03-29T15:36:11.271Z,100.00
2023-03-29T15:38:44.112Z,100.00
2023-03-29T15:41:13.582Z,100.00
2023-03-29T15:43:43.231Z,100.00
2023-03-29T15:46:13.940Z,100.00
2023-03-29T15:48:40.900Z,100.00
2023-03-29T15:51:11.734Z,100.00
2023-03-29T15:53:38.770Z,100.00
2023-03-29T15:56:08.104Z,100.00
2023-03-29T15:58:35.429Z,100.00
2023-03-29T16:01:23.662Z,100.00
2023-03-29T16:03:50.969Z,100.00
2023-03-29T16:06:17.828Z,100.00
2023-03-29T16:08:44.589Z,100.00
2023-03-29T16:11:11.561Z,100.00
2023-03-29T16:13:37.992Z,100.00
2023-03-29T16:16:05.524Z,100.00
2023-03-29T16:18:32.302Z,100.00
2023-03-29T16:20:59.352Z,100.00
2023-03-29T16:23:26.550Z,100.00
2023-03-29T16:25:55.830Z,100.00
2023-03-29T16:28:22.436Z,100.00
2023-03-29T16:30:51.372Z,100.00
2023-03-29T16:33:17.899Z,100.00
2023-03-29T16:35:44.434Z,100.00
2023-03-29T16:38:10.941Z,100.00
2023-03-29T16:40:39.641Z,100.00
2023-03-29T16:43:12.605Z,100.00
2023-03-29T16:45:39.097Z,100.00
2023-03-29T16:48:05.730Z,100.00
2023-03-29T16:50:32.408Z,100.00
2023-03-29T16:52:59.126Z,100.00
2023-03-29T16:55:25.620Z,100.00
2023-03-29T16:57:52.446Z,100.00
2023-03-29T17:00:20.252Z,100.00
2023-03-29T17:02:49.615Z,100.00
2023-03-29T17:05:19.293Z,100.00
2023-03-29T17:07:51.463Z,100.00
2023-03-29T17:10:17.884Z,100.00
2023-03-29T17:12:44.547Z,100.00
2023-03-29T17:15:11.285Z,100.00
2023-03-29T17:17:37.870Z,100.00
2023-03-29T17:20:11.999Z,100.00
2023-03-29T17:22:42.047Z,100.00
2023-03-29T17:25:09.005Z,100.00
2023-03-29T17:27:37.462Z,100.00
2023-03-29T17:30:08.219Z,100.00
2023-03-29T17:32:35.827Z,100.00
2023-03-29T17:35:02.492Z,100.00
2023-03-29T17:37:29.290Z,100.00
2023-03-29T17:39:58.397Z,100.00
2023-03-29T17:42:24.850Z,100.00
2023-03-29T17:44:51.293Z,100.00
2023-03-29T17:47:17.916Z,100.00
2023-03-29T17:49:46.511Z,100.00
2023-03-29T17:52:12.968Z,100.00
2023-03-29T17:54:40.841Z,100.00
2023-03-29T17:57:07.480Z,100.00
2023-03-29T17:59:34.049Z,100.00
2023-03-29T18:02:02.527Z,100.00
2023-03-29T18:04:29.212Z,100.00
2023-03-29T18:06:55.671Z,100.00
2023-03-29T18:09:26.679Z,100.00
2023-03-29T18:11:54.649Z,100.00
2023-03-29T18:14:21.419Z,100.00
2023-03-29T18:16:47.871Z,100.00
2023-03-29T18:19:15.730Z,100.00
2023-03-29T18:21:44.494Z,100.00
2023-03-29T18:24:11.093Z,100.00
2023-03-29T18:26:40.080Z,100.00
2023-03-29T18:29:09.867Z,100.00
2023-03-29T18:31:36.502Z,100.00
2023-03-29T18:34:03.156Z,100.00
2023-03-29T18:36:30.386Z,100.00
2023-03-29T18:39:02.347Z,100.00
2023-03-29T18:41:28.766Z,100.00
2023-03-29T18:43:57.274Z,100.00
2023-03-29T18:46:23.867Z,100.00
2023-03-29T18:48:53.378Z,100.00
2023-03-29T18:51:19.911Z,100.00
2023-03-29T18:53:46.389Z,100.00
2023-03-29T18:56:12.834Z,100.00
2023-03-29T18:58:39.212Z,100.00
2023-03-29T19:01:06.800Z,100.00
2023-03-29T19:03:37.065Z,100.00
2023-03-29T19:06:03.964Z,100.00
2023-03-29T19:08:32.287Z,100.00
2023-03-29T19:11:04.409Z,100.00
2023-03-29T19:13:31.012Z,100.00
2023-03-29T19:15:57.537Z,100.00
2023-03-29T19:18:24.134Z,100.00
2023-03-29T19:20:56.198Z,100.00
2023-03-29T19:23:25.061Z,100.00
2023-03-29T19:26:00.337Z,100.00
2023-03-29T19:28:29.474Z,100.00
2023-03-29T19:30:58.251Z,100.00
2023-03-29T19:33:24.924Z,100.00
2023-03-29T19:35:52.108Z,100.00
2023-03-29T19:38:19.689Z,100.00
2023-03-29T19:40:47.670Z,100.00
2023-03-29T19:43:16.479Z,100.00
2023-03-29T19:45:46.230Z,100.00
2023-03-29T19:48:21.778Z,100.00
2023-03-29T19:50:49.389Z,100.00
2023-03-29T19:53:18.322Z,100.00
2023-03-29T19:55:45.404Z,100.00
2023-03-29T19:58:14.334Z,100.00
2023-03-29T20:00:41.836Z,100.00
2023-03-29T20:03:11.223Z,100.00
2023-03-29T20:05:38.958Z,100.00
2023-03-29T20:08:06.447Z,100.00
2023-03-29T20:10:35.863Z,100.00
2023-03-29T20:13:03.037Z,100.00
2023-03-29T20:15:29.580Z,100.00
2023-03-29T20:17:59.298Z,100.00
2023-03-29T20:20:29.885Z,100.00
2023-03-29T20:23:04.550Z,100.00
2023-03-29T20:25:31.763Z,100.00
2023-03-29T20:27:59.563Z,100.00
2023-03-29T20:30:26.456Z,100.00
2023-03-29T20:32:53.081Z,100.00
2023-03-29T20:35:19.729Z,100.00
2023-03-29T20:37:46.324Z,100.00
2023-03-29T20:40:15.543Z,100.00
2023-03-29T20:42:42.187Z,100.00
2023-03-29T20:45:18.605Z,100.00
2023-03-29T20:47:50.512Z,100.00
2023-03-29T20:50:20.089Z,100.00
2023-03-29T20:52:46.813Z,100.00
2023-03-29T20:55:13.595Z,100.00
2023-03-29T20:57:42.352Z,100.00
2023-03-29T21:00:12.025Z,100.00
2023-03-29T21:02:41.669Z,100.00
2023-03-29T21:05:08.723Z,100.00
2023-03-29T21:07:35.107Z,100.00
2023-03-29T21:10:01.595Z,100.00
2023-03-29T21:12:28.149Z,100.00
2023-03-29T21:14:55.143Z,100.00
2023-03-29T21:17:27.069Z,100.00
2023-03-29T21:19:55.040Z,100.00
2023-03-29T21:22:21.918Z,100.00
2023-03-29T21:24:48.305Z,100.00
2023-03-29T21:27:14.797Z,100.00
2023-03-29T21:29:41.310Z,100.00
2023-03-29T21:32:07.719Z,100.00
2023-03-29T21:34:34.324Z,100.00
2023-03-29T21:37:00.885Z,100.00
2023-03-29T21:39:27.610Z,100.00
2023-03-29T21:41:56.783Z,100.00
2023-03-29T21:44:23.172Z,100.00
2023-03-29T21:46:52.136Z,100.00
2023-03-29T21:49:21.139Z,100.00
2023-03-29T21:51:47.509Z,100.00
2023-03-29T21:54:13.950Z,100.00
2023-03-29T21:56:40.480Z,100.00
2023-03-29T21:59:09.367Z,100.00
2023-03-29T22:01:36.234Z,100.00
2023-03-29T22:04:04.168Z,100.00
2023-03-29T22:06:30.948Z,100.00
2023-03-29T22:08:57.337Z,100.00
2023-03-29T22:11:25.571Z,100.00
2023-03-29T22:13:53.985Z,100.00
2023-03-29T22:16:20.816Z,100.00
2023-03-29T22:18:49.622Z,100.00
2023-03-29T22:21:22.521Z,100.00
2023-03-29T22:23:51.617Z,100.00
2023-03-29T22:26:20.985Z,100.00
2023-03-29T22:28:47.496Z,100.00
2023-03-29T22:31:16.522Z,100.00
2023-03-29T22:33:44.029Z,100.00
2023-03-29T22:36:14.734Z,100.00
2023-03-29T22:38:41.378Z,100.00
2023-03-29T22:41:08.280Z,100.00
2023-03-29T22:43:36.400Z,100.00
2023-03-29T22:46:07.268Z,100.00
2023-03-29T22:48:34.305Z,100.00
2023-03-29T22:51:03.507Z,100.00
2023-03-29T22:53:30.144Z,100.00
2023-03-29T22:55:56.585Z,100.00
2023-03-29T22:58:23.493Z,100.00
2023-03-29T23:00:51.000Z,100.00
2023-03-29T23:03:20.196Z,100.00
2023-03-29T23:05:55.238Z,100.00
2023-03-29T23:08:23.367Z,100.00
2023-03-29T23:10:52.620Z,100.00
2023-03-29T23:13:28.774Z,100.00
2023-03-29T23:15:59.913Z,100.00
2023-03-29T23:18:28.800Z,100.00
2023-03-29T23:21:00.209Z,100.00
2023-03-29T23:23:28.034Z,100.00
2023-03-29T23:25:57.882Z,100.00
2023-03-29T23:28:27.656Z,100.00
2023-03-29T23:31:06.562Z,100.00
2023-03-29T23:33:35.754Z,100.00
2023-03-29T23:36:04.184Z,100.00
2023-03-29T23:38:31.883Z,100.00
2023-03-29T23:41:02.110Z,100.00
2023-03-29T23:43:33.025Z,100.00
2023-03-29T23:46:01.772Z,100.00
2023-03-29T23:48:34.273Z,100.00
2023-03-29T23:51:02.255Z,100.00
2023-03-29T23:53:30.022Z,100.00
2023-03-29T23:56:01.442Z,100.00
2023-03-29T23:58:28.983Z,100.00
